Time;durP1;ratioP1;P1;durP2;ratioP2;P2;SDS_P1;SDS_P2;PMS_P1;PMS_P2;Temp;Humidity;BMP_temperature;BMP_pressure;BME280_temperature;BME280_humidity;BME280_pressure;Samples;Min_cycle;Max_cycle;Signal;HPM_P1;HPM_P2
2023/06/12 00:01:57;;;;;;;7.47;5.87;;;;;;;;;;5072452;28;20487;-75
2023/06/12 00:04:25;;;;;;;6.20;4.60;;;;;;;;;;5069305;28;20439;-76
2023/06/12 00:06:56;;;;;;;8.53;5.90;;;;;;;;;;5054530;28;20482;-76
2023/06/12 00:09:23;;;;;;;5.53;5.03;;;;;;;;;;5068351;28;20477;-76
2023/06/12 00:11:50;;;;;;;6.73;5.23;;;;;;;;;;5072206;28;20542;-76
2023/06/12 00:14:19;;;;;;;5.67;5.07;;;;;;;;;;5072615;28;20440;-76
2023/06/12 00:16:51;;;;;;;6.17;5.57;;;;;;;;;;5072021;28;20442;-74
2023/06/12 00:19:20;;;;;;;6.77;5.73;;;;;;;;;;5066338;28;20440;-75
2023/06/12 00:21:47;;;;;;;6.30;4.87;;;;;;;;;;5074117;28;20442;-76
2023/06/12 00:24:15;;;;;;;6.50;5.33;;;;;;;;;;5073601;28;20457;-76
2023/06/12 00:26:42;;;;;;;5.57;4.97;;;;;;;;;;5075144;28;20476;-75
2023/06/12 00:29:09;;;;;;;7.43;6.27;;;;;;;;;;5075138;28;20577;-76
2023/06/12 00:31:38;;;;;;;7.53;4.90;;;;;;;;;;5074569;28;20441;-76
2023/06/12 00:34:06;;;;;;;6.67;5.17;;;;;;;;;;5075494;28;20866;-75
2023/06/12 00:36:34;;;;;;;7.83;6.37;;;;;;;;;;5074785;28;20438;-74
2023/06/12 00:39:03;;;;;;;7.20;5.30;;;;;;;;;;5057237;28;20533;-76
2023/06/12 00:41:30;;;;;;;6.23;5.17;;;;;;;;;;5075278;28;20434;-76
2023/06/12 00:43:57;;;;;;;6.37;5.40;;;;;;;;;;5074985;28;20532;-76
2023/06/12 00:46:26;;;;;;;5.80;5.20;;;;;;;;;;5075134;28;20449;-76
2023/06/12 00:48:55;;;;;;;6.50;5.63;;;;;;;;;;5074129;28;20476;-76
2023/06/12 00:51:23;;;;;;;8.50;6.00;;;;;;;;;;5074875;28;20804;-76
2023/06/12 00:53:52;;;;;;;8.90;6.90;;;;;;;;;;5074645;28;20527;-76
2023/06/12 00:56:19;;;;;;;8.70;6.57;;;;;;;;;;5074450;28;20504;-75
2023/06/12 00:58:46;;;;;;;7.07;6.33;;;;;;;;;;5074360;28;20494;-76
2023/06/12 01:01:14;;;;;;;6.50;5.80;;;;;;;;;;5073479;28;20441;-76
2023/06/12 01:03:41;;;;;;;6.80;4.90;;;;;;;;;;5073324;28;20482;-76
2023/06/12 01:06:17;;;;;;;8.23;5.80;;;;;;;;;;5076747;28;20442;-74
2023/06/12 01:08:50;;;;;;;6.80;5.90;;;;;;;;;;5078667;28;20995;-75
2023/06/12 01:11:19;;;;;;;7.00;6.30;;;;;;;;;;5078475;28;20446;-75
2023/06/12 01:13:46;;;;;;;7.40;6.33;;;;;;;;;;5077912;28;20951;-75
2023/06/12 01:16:14;;;;;;;9.30;6.80;;;;;;;;;;5078093;28;20436;-76
2023/06/12 01:18:43;;;;;;;8.10;6.43;;;;;;;;;;5078296;28;20489;-76
2023/06/12 01:21:13;;;;;;;8.90;6.60;;;;;;;;;;5077418;28;20993;-76
2023/06/12 01:23:53;;;;;;;8.03;6.47;;;;;;;;;;5077167;28;20440;-75
2023/06/12 01:26:40;;;;;;;9.70;6.53;;;;;;;;;;5078008;28;20814;-76
2023/06/12 01:29:22;;;;;;;6.70;5.63;;;;;;;;;;5077059;28;20481;-75
2023/06/12 01:32:02;;;;;;;8.10;7.40;;;;;;;;;;5076017;28;20845;-76
2023/06/12 01:34:31;;;;;;;7.47;5.27;;;;;;;;;;5077851;28;20490;-76
2023/06/12 01:37:05;;;;;;;7.00;6.30;;;;;;;;;;5077791;28;20438;-76
2023/06/12 01:39:37;;;;;;;7.60;6.43;;;;;;;;;;5077357;28;20432;-74
2023/06/12 01:42:07;;;;;;;6.50;5.90;;;;;;;;;;5077215;28;20437;-75
2023/06/12 01:44:34;;;;;;;6.27;5.67;;;;;;;;;;5077525;28;20999;-75
2023/06/12 01:47:03;;;;;;;7.30;5.70;;;;;;;;;;5077542;28;20462;-75
2023/06/12 01:49:30;;;;;;;7.03;5.73;;;;;;;;;;5077168;28;20480;-76
2023/06/12 01:51:58;;;;;;;6.80;6.07;;;;;;;;;;5077776;28;20466;-75
2023/06/12 01:54:26;;;;;;;6.70;5.83;;;;;;;;;;5077154;28;20442;-75
2023/06/12 01:56:57;;;;;;;7.70;6.23;;;;;;;;;;5076724;28;20437;-75
2023/06/12 01:59:25;;;;;;;6.80;6.20;;;;;;;;;;5077535;28;20434;-75
2023/06/12 02:01:52;;;;;;;8.23;7.27;;;;;;;;;;5076875;28;20442;-76
2023/06/12 02:04:20;;;;;;;6.50;5.63;;;;;;;;;;5077055;28;20444;-76
2023/06/12 02:06:48;;;;;;;10.40;6.87;;;;;;;;;;5076145;28;20939;-75
2023/06/12 02:09:16;;;;;;;7.70;6.20;;;;;;;;;;5076524;28;21033;-75
2023/06/12 02:11:43;;;;;;;6.37;5.77;;;;;;;;;;5077536;28;20514;-76
2023/06/12 02:14:11;;;;;;;6.63;5.93;;;;;;;;;;5077734;28;20452;-75
2023/06/12 02:16:38;;;;;;;7.80;5.80;;;;;;;;;;5076565;28;20437;-75
2023/06/12 02:19:05;;;;;;;8.00;6.40;;;;;;;;;;5076414;28;20440;-75
2023/06/12 02:21:34;;;;;;;6.60;5.37;;;;;;;;;;5077142;28;20430;-75
2023/06/12 02:24:01;;;;;;;6.43;5.50;;;;;;;;;;5076846;28;20936;-76
2023/06/12 02:26:28;;;;;;;7.63;6.47;;;;;;;;;;5076859;28;20434;-75
2023/06/12 02:29:08;;;;;;;6.30;4.90;;;;;;;;;;5075953;28;20481;-76
2023/06/12 02:31:36;;;;;;;6.93;6.23;;;;;;;;;;5076315;28;20437;-75
2023/06/12 02:34:03;;;;;;;7.03;6.33;;;;;;;;;;5076924;28;20798;-75
2023/06/12 02:36:31;;;;;;;7.13;5.97;;;;;;;;;;5076194;28;20445;-74
2023/06/12 02:39:00;;;;;;;7.37;6.37;;;;;;;;;;5076790;28;20437;-75
2023/06/12 02:41:27;;;;;;;10.20;6.73;;;;;;;;;;5075099;28;20442;-75
2023/06/12 02:43:54;;;;;;;7.50;6.20;;;;;;;;;;5075255;28;20444;-75
2023/06/12 02:46:22;;;;;;;7.60;6.80;;;;;;;;;;5075272;28;20848;-75
2023/06/12 02:48:49;;;;;;;8.20;6.63;;;;;;;;;;5074917;28;20470;-75
2023/06/12 02:51:16;;;;;;;8.57;6.63;;;;;;;;;;5074374;28;20948;-75
2023/06/12 02:53:44;;;;;;;7.67;6.10;;;;;;;;;;5075204;28;20985;-74
2023/06/12 02:56:14;;;;;;;7.13;6.43;;;;;;;;;;5077391;28;20468;-75
2023/06/12 02:58:41;;;;;;;8.33;6.70;;;;;;;;;;5076541;28;20847;-74
2023/06/12 03:01:10;;;;;;;10.17;6.83;;;;;;;;;;5076549;28;20433;-75
2023/06/12 03:03:39;;;;;;;9.00;7.30;;;;;;;;;;5076547;28;20443;-75
2023/06/12 03:06:08;;;;;;;7.33;6.60;;;;;;;;;;5076319;28;20441;-75
2023/06/12 03:08:35;;;;;;;9.43;7.80;;;;;;;;;;5076034;28;20441;-74
2023/06/12 03:11:02;;;;;;;7.60;6.70;;;;;;;;;;5075897;28;20839;-75
2023/06/12 03:13:31;;;;;;;7.80;7.00;;;;;;;;;;5076008;28;20436;-75
2023/06/12 03:16:01;;;;;;;7.93;7.13;;;;;;;;;;5075960;28;20485;-75
2023/06/12 03:18:29;;;;;;;7.40;6.70;;;;;;;;;;5075752;28;20928;-75
2023/06/12 03:21:01;;;;;;;6.83;6.13;;;;;;;;;;5074906;28;20992;-75
2023/06/12 03:23:28;;;;;;;8.40;6.30;;;;;;;;;;5074457;28;20437;-75
2023/06/12 03:25:56;;;;;;;9.30;8.40;;;;;;;;;;5074389;28;20446;-74
2023/06/12 03:28:23;;;;;;;8.40;7.50;;;;;;;;;;5074458;28;20448;-75
2023/06/12 03:30:52;;;;;;;7.90;6.97;;;;;;;;;;5074758;28;20513;-75
2023/06/12 03:33:19;;;;;;;11.13;7.70;;;;;;;;;;5074837;28;20434;-75
2023/06/12 03:35:51;;;;;;;8.10;7.30;;;;;;;;;;5074634;28;20473;-75
2023/06/12 03:38:21;;;;;;;9.20;8.30;;;;;;;;;;5074869;28;20438;-75
2023/06/12 03:40:48;;;;;;;8.47;6.87;;;;;;;;;;5073923;28;20442;-75
2023/06/12 03:43:15;;;;;;;9.67;7.80;;;;;;;;;;5074687;28;20437;-75
2023/06/12 03:45:43;;;;;;;13.07;8.93;;;;;;;;;;5074503;28;20429;-75
2023/06/12 03:48:11;;;;;;;10.20;8.03;;;;;;;;;;5074526;28;20441;-74
2023/06/12 03:50:39;;;;;;;12.20;7.80;;;;;;;;;;5074096;28;20481;-75
2023/06/12 03:53:07;;;;;;;8.97;7.20;;;;;;;;;;5074607;28;20434;-74
2023/06/12 03:55:35;;;;;;;10.90;8.40;;;;;;;;;;5074293;28;20466;-74
2023/06/12 03:58:03;;;;;;;10.13;8.10;;;;;;;;;;5074314;28;20529;-75
2023/06/12 04:00:31;;;;;;;10.93;7.70;;;;;;;;;;5073841;28;20433;-75
2023/06/12 04:02:58;;;;;;;10.53;7.77;;;;;;;;;;5074937;28;20445;-75
2023/06/12 04:05:26;;;;;;;10.40;7.70;;;;;;;;;;5074505;28;20504;-75
2023/06/12 04:07:58;;;;;;;8.20;7.07;;;;;;;;;;5073914;28;20487;-75
2023/06/12 04:10:25;;;;;;;8.10;7.20;;;;;;;;;;5074061;28;20979;-76
2023/06/12 04:12:52;;;;;;;8.83;7.00;;;;;;;;;;5075243;28;20433;-75
2023/06/12 04:15:20;;;;;;;9.73;6.70;;;;;;;;;;5075015;28;20834;-75
2023/06/12 04:17:48;;;;;;;9.73;8.30;;;;;;;;;;5074615;28;20436;-75
2023/06/12 04:20:15;;;;;;;8.73;7.80;;;;;;;;;;5075009;28;20452;-75
2023/06/12 04:22:47;;;;;;;7.50;6.70;;;;;;;;;;5074987;28;20831;-75
2023/06/12 04:25:15;;;;;;;7.70;6.90;;;;;;;;;;5074330;28;20441;-75
2023/06/12 04:27:43;;;;;;;9.40;7.13;;;;;;;;;;5073807;28;20473;-75
2023/06/12 04:30:15;;;;;;;8.07;7.13;;;;;;;;;;5072866;28;20509;-74
2023/06/12 04:32:59;;;;;;;8.00;6.70;;;;;;;;;;5073352;28;20446;-74
2023/06/12 04:35:33;;;;;;;10.50;8.17;;;;;;;;;;5074329;28;20445;-75
2023/06/12 04:38:01;;;;;;;9.23;8.33;;;;;;;;;;5074308;28;20436;-75
2023/06/12 04:40:29;;;;;;;7.80;7.00;;;;;;;;;;5077205;28;20448;-75
2023/06/12 04:42:59;;;;;;;8.67;7.77;;;;;;;;;;5077680;28;20488;-75
2023/06/12 04:45:32;;;;;;;21.93;8.27;;;;;;;;;;5071393;28;20468;-75
2023/06/12 04:47:59;;;;;;;8.20;7.30;;;;;;;;;;5078163;28;20533;-75
2023/06/12 04:50:27;;;;;;;8.40;7.30;;;;;;;;;;5077745;28;20486;-75
2023/06/12 04:52:54;;;;;;;7.40;6.60;;;;;;;;;;5078291;28;20845;-75
2023/06/12 04:55:23;;;;;;;7.97;6.23;;;;;;;;;;5076753;28;20469;-74
2023/06/12 04:57:52;;;;;;;10.57;5.90;;;;;;;;;;5077512;28;20904;-75
2023/06/12 05:00:20;;;;;;;8.50;6.97;;;;;;;;;;5078444;28;20464;-75
2023/06/12 05:02:50;;;;;;;7.50;6.80;;;;;;;;;;5077786;28;20447;-75
2023/06/12 05:05:19;;;;;;;8.63;7.73;;;;;;;;;;5078231;28;20872;-75
2023/06/12 05:07:47;;;;;;;8.37;7.13;;;;;;;;;;5079134;28;20460;-75
2023/06/12 05:10:14;;;;;;;7.40;6.57;;;;;;;;;;5078872;28;20480;-75
2023/06/12 05:12:43;;;;;;;9.80;7.07;;;;;;;;;;5077920;28;20989;-76
2023/06/12 05:15:13;;;;;;;9.43;8.03;;;;;;;;;;5076786;28;20491;-75
2023/06/12 05:17:40;;;;;;;9.90;7.90;;;;;;;;;;5075674;28;20488;-74
2023/06/12 05:20:09;;;;;;;9.67;7.77;;;;;;;;;;5063645;28;20478;-75
2023/06/12 05:22:37;;;;;;;9.87;7.17;;;;;;;;;;5073483;28;20438;-74
2023/06/12 05:25:04;;;;;;;7.90;7.10;;;;;;;;;;5073603;28;20516;-75
2023/06/12 05:27:32;;;;;;;6.80;5.73;;;;;;;;;;5073744;28;20491;-74
2023/06/12 05:30:00;;;;;;;20.10;6.50;;;;;;;;;;5057283;28;20486;-75
2023/06/12 05:32:28;;;;;;;8.37;7.43;;;;;;;;;;5055933;28;20443;-76
2023/06/12 05:34:55;;;;;;;11.60;6.20;;;;;;;;;;5062794;28;20439;-75
2023/06/12 05:37:22;;;;;;;11.57;7.63;;;;;;;;;;5060578;28;20434;-75
2023/06/12 05:39:49;;;;;;;9.77;6.80;;;;;;;;;;5062721;28;20794;-75
2023/06/12 05:42:17;;;;;;;8.83;7.27;;;;;;;;;;5061613;28;20481;-76
2023/06/12 05:44:49;;;;;;;9.67;6.47;;;;;;;;;;5071967;28;20450;-75
2023/06/12 05:47:17;;;;;;;10.47;5.67;;;;;;;;;;5071902;28;20766;-75
2023/06/12 05:49:45;;;;;;;8.07;7.23;;;;;;;;;;5060505;28;20501;-76
2023/06/12 05:52:12;;;;;;;10.50;6.80;;;;;;;;;;5062472;28;20506;-75
2023/06/12 05:54:39;;;;;;;9.93;7.17;;;;;;;;;;5053623;28;20499;-75
2023/06/12 05:57:06;;;;;;;8.13;6.70;;;;;;;;;;5060322;28;20471;-75
2023/06/12 05:59:34;;;;;;;9.73;7.60;;;;;;;;;;5067437;28;20493;-74
2023/06/12 06:02:01;;;;;;;10.17;6.83;;;;;;;;;;5071409;28;20462;-74
2023/06/12 06:04:30;;;;;;;9.73;6.50;;;;;;;;;;5066470;28;20458;-74
2023/06/12 06:06:57;;;;;;;7.83;7.03;;;;;;;;;;5058775;28;20479;-74
2023/06/12 06:09:26;;;;;;;8.33;6.50;;;;;;;;;;5060675;28;20447;-75
2023/06/12 06:11:53;;;;;;;8.33;7.53;;;;;;;;;;5070403;28;20567;-75
2023/06/12 06:14:20;;;;;;;8.40;6.60;;;;;;;;;;5065461;28;20510;-75
2023/06/12 06:16:51;;;;;;;7.50;6.40;;;;;;;;;;5068571;28;20863;-75
2023/06/12 06:19:19;;;;;;;7.97;7.17;;;;;;;;;;5069628;28;20503;-75
2023/06/12 06:21:48;;;;;;;7.23;6.53;;;;;;;;;;5070854;28;20534;-74
2023/06/12 06:24:15;;;;;;;8.03;7.10;;;;;;;;;;5067359;28;20431;-75
2023/06/12 06:26:42;;;;;;;7.93;7.10;;;;;;;;;;5068477;28;21342;-75
2023/06/12 06:29:10;;;;;;;7.53;6.40;;;;;;;;;;5066960;28;20427;-75
2023/06/12 06:31:37;;;;;;;8.17;6.90;;;;;;;;;;5069705;28;20481;-75
2023/06/12 06:34:05;;;;;;;9.10;8.20;;;;;;;;;;5070670;28;20445;-75
2023/06/12 06:36:32;;;;;;;7.60;6.80;;;;;;;;;;5073542;28;20937;-74
2023/06/12 06:39:01;;;;;;;8.00;6.93;;;;;;;;;;5073890;28;20522;-74
2023/06/12 06:41:28;;;;;;;8.30;7.50;;;;;;;;;;5054320;28;20582;-75
2023/06/12 06:43:55;;;;;;;8.67;7.83;;;;;;;;;;5066041;28;20439;-74
2023/06/12 06:46:22;;;;;;;10.33;6.80;;;;;;;;;;5074496;28;20495;-75
2023/06/12 06:48:49;;;;;;;7.17;6.50;;;;;;;;;;5074197;28;20482;-75
2023/06/12 06:51:17;;;;;;;7.70;6.60;;;;;;;;;;5074022;28;20984;-75
2023/06/12 06:53:44;;;;;;;8.20;7.17;;;;;;;;;;5074002;28;20872;-75
2023/06/12 06:56:12;;;;;;;8.40;6.53;;;;;;;;;;5073838;28;20509;-75
2023/06/12 06:58:40;;;;;;;7.77;6.50;;;;;;;;;;5073807;28;20526;-76
2023/06/12 07:01:07;;;;;;;9.00;8.10;;;;;;;;;;5074170;28;20455;-76
2023/06/12 07:03:34;;;;;;;7.80;7.00;;;;;;;;;;5073833;28;20492;-76
2023/06/12 07:06:02;;;;;;;9.20;7.10;;;;;;;;;;5074086;28;20850;-76
2023/06/12 07:08:29;;;;;;;6.97;6.27;;;;;;;;;;5070686;28;20534;-76
2023/06/12 07:10:56;;;;;;;7.23;6.53;;;;;;;;;;5073163;28;20886;-77
2023/06/12 07:13:25;;;;;;;5.90;5.23;;;;;;;;;;5069651;28;20450;-76
2023/06/12 07:15:59;;;;;;;7.07;5.60;;;;;;;;;;5073187;28;20482;-76
2023/06/12 07:18:26;;;;;;;6.47;5.00;;;;;;;;;;5073022;28;20443;-76
2023/06/12 07:20:54;;;;;;;6.27;5.60;;;;;;;;;;5073037;28;20466;-76
2023/06/12 07:23:21;;;;;;;6.67;5.73;;;;;;;;;;5071718;28;20479;-76
2023/06/12 07:25:48;;;;;;;6.33;5.73;;;;;;;;;;5072619;28;20667;-76
2023/06/12 07:28:15;;;;;;;7.60;6.80;;;;;;;;;;5071921;28;20916;-76
2023/06/12 07:30:44;;;;;;;6.13;5.53;;;;;;;;;;5069498;28;20507;-76
2023/06/12 07:33:11;;;;;;;6.30;5.60;;;;;;;;;;5064446;28;20443;-76
2023/06/12 07:35:38;;;;;;;5.90;5.30;;;;;;;;;;5072351;28;20488;-77
2023/06/12 07:38:06;;;;;;;6.30;5.53;;;;;;;;;;5072461;28;20929;-76
2023/06/12 07:40:33;;;;;;;7.87;6.17;;;;;;;;;;5072333;28;20463;-76
2023/06/12 07:43:02;;;;;;;5.97;5.37;;;;;;;;;;5071930;28;20453;-76
2023/06/12 07:45:31;;;;;;;7.23;5.70;;;;;;;;;;5072612;28;20471;-77
2023/06/12 07:47:59;;;;;;;6.17;5.57;;;;;;;;;;5072552;28;20442;-76
2023/06/12 07:50:27;;;;;;;8.43;5.67;;;;;;;;;;5072263;28;20523;-76
2023/06/12 07:52:54;;;;;;;6.27;5.50;;;;;;;;;;5071578;28;20860;-76
2023/06/12 07:55:21;;;;;;;6.17;5.57;;;;;;;;;;5071835;28;20470;-76
2023/06/12 07:57:50;;;;;;;5.70;4.83;;;;;;;;;;5072384;28;20532;-76
2023/06/12 08:00:17;;;;;;;5.93;4.57;;;;;;;;;;5072205;28;20530;-76
2023/06/12 08:02:58;;;;;;;6.43;5.83;;;;;;;;;;5067472;28;20539;-77
2023/06/12 08:05:29;;;;;;;7.57;5.90;;;;;;;;;;5069572;28;20442;-77
2023/06/12 08:07:57;;;;;;;7.87;6.17;;;;;;;;;;5072049;28;20447;-76
2023/06/12 08:10:24;;;;;;;5.60;4.67;;;;;;;;;;5072203;28;20477;-76
2023/06/12 08:12:51;;;;;;;6.10;5.07;;;;;;;;;;5071792;28;20474;-75
2023/06/12 08:15:19;;;;;;;6.93;6.23;;;;;;;;;;5071788;28;20446;-76
2023/06/12 08:17:47;;;;;;;5.33;4.83;;;;;;;;;;5068232;28;20469;-77
2023/06/12 08:20:18;;;;;;;9.63;4.77;;;;;;;;;;5072190;28;20475;-76
2023/06/12 08:22:46;;;;;;;6.50;4.70;;;;;;;;;;5070908;28;20494;-77
2023/06/12 08:25:14;;;;;;;6.33;5.17;;;;;;;;;;5072148;28;20430;-76
2023/06/12 08:27:41;;;;;;;9.83;5.30;;;;;;;;;;5072149;28;20500;-76
2023/06/12 08:30:12;;;;;;;5.60;4.50;;;;;;;;;;5071689;28;20482;-76
2023/06/12 08:32:41;;;;;;;7.77;5.63;;;;;;;;;;5070725;28;20582;-76
2023/06/12 08:35:09;;;;;;;5.13;4.60;;;;;;;;;;5072086;28;20530;-77
2023/06/12 08:37:36;;;;;;;6.87;4.90;;;;;;;;;;5071875;28;20477;-76
2023/06/12 08:40:05;;;;;;;6.00;5.17;;;;;;;;;;5072047;28;20519;-75
2023/06/12 08:42:33;;;;;;;5.33;4.40;;;;;;;;;;5070564;28;20447;-76
2023/06/12 08:45:04;;;;;;;6.20;4.40;;;;;;;;;;5071807;28;20862;-76
2023/06/12 08:47:32;;;;;;;5.03;4.40;;;;;;;;;;5072330;28;20446;-76
2023/06/12 08:50:00;;;;;;;9.27;4.60;;;;;;;;;;5071939;28;20489;-76
2023/06/12 08:52:27;;;;;;;6.13;4.53;;;;;;;;;;5070544;28;20549;-76
2023/06/12 08:54:56;;;;;;;6.33;4.90;;;;;;;;;;5071377;28;20491;-76
2023/06/12 08:57:26;;;;;;;6.47;5.83;;;;;;;;;;5068352;28;20470;-77
2023/06/12 08:59:56;;;;;;;5.90;4.80;;;;;;;;;;5072274;28;20659;-77
2023/06/12 09:02:24;;;;;;;6.10;4.60;;;;;;;;;;5071213;28;20454;-77
2023/06/12 09:05:01;;;;;;;11.47;4.47;;;;;;;;;;5071708;28;20442;-76
2023/06/12 09:07:30;;;;;;;5.30;4.33;;;;;;;;;;5068640;28;20450;-76
2023/06/12 09:09:57;;;;;;;6.40;4.90;;;;;;;;;;5071971;28;20470;-76
2023/06/12 09:12:32;;;;;;;5.77;4.50;;;;;;;;;;5070842;28;20529;-76
2023/06/12 09:15:01;;;;;;;6.70;4.87;;;;;;;;;;5068361;28;20513;-76
2023/06/12 09:17:29;;;;;;;5.77;4.43;;;;;;;;;;5072093;28;20846;-77
2023/06/12 09:19:57;;;;;;;6.67;4.93;;;;;;;;;;5068079;28;20443;-77
2023/06/12 09:22:25;;;;;;;6.97;5.00;;;;;;;;;;5070889;28;20509;-77
2023/06/12 09:24:53;;;;;;;6.37;4.53;;;;;;;;;;5071727;28;20481;-74
2023/06/12 09:27:22;;;;;;;5.83;4.80;;;;;;;;;;5074370;28;20939;-74
2023/06/12 09:29:50;;;;;;;6.53;4.43;;;;;;;;;;5075475;28;20444;-74
2023/06/12 09:32:17;;;;;;;4.90;4.37;;;;;;;;;;5075148;28;20925;-74
2023/06/12 09:34:46;;;;;;;5.63;3.87;;;;;;;;;;5072625;28;20448;-75
2023/06/12 09:37:15;;;;;;;5.43;4.20;;;;;;;;;;5075063;28;20448;-76
2023/06/12 09:39:42;;;;;;;5.37;4.87;;;;;;;;;;5075178;28;20448;-74
2023/06/12 09:42:11;;;;;;;5.67;4.70;;;;;;;;;;5074871;28;20512;-75
2023/06/12 09:44:40;;;;;;;6.90;5.67;;;;;;;;;;5072283;28;20500;-76
2023/06/12 09:47:09;;;;;;;5.63;4.57;;;;;;;;;;5074948;28;20470;-76
2023/06/12 09:49:36;;;;;;;5.60;4.20;;;;;;;;;;5075172;28;20910;-76
2023/06/12 09:52:05;;;;;;;5.03;3.53;;;;;;;;;;5071577;28;20529;-75
2023/06/12 09:54:33;;;;;;;6.70;3.73;;;;;;;;;;5072410;28;20451;-76
2023/06/12 09:57:02;;;;;;;5.60;4.80;;;;;;;;;;5075022;28;20468;-76
2023/06/12 09:59:32;;;;;;;6.83;4.50;;;;;;;;;;5074651;28;20444;-76
2023/06/12 10:02:03;;;;;;;5.50;4.70;;;;;;;;;;5075548;28;20482;-76
2023/06/12 10:04:37;;;;;;;5.70;4.70;;;;;;;;;;5075415;28;20520;-76
2023/06/12 10:07:06;;;;;;;5.83;4.10;;;;;;;;;;5075357;28;20441;-75
2023/06/12 10:09:35;;;;;;;4.90;4.40;;;;;;;;;;5074943;28;20470;-75
2023/06/12 10:12:03;;;;;;;9.33;4.70;;;;;;;;;;5075183;28;20540;-75
2023/06/12 10:14:30;;;;;;;7.50;4.90;;;;;;;;;;5075372;28;20532;-75
2023/06/12 10:16:58;;;;;;;5.50;3.67;;;14.10;83.80;;;;;;5074855;28;20829;-75
2023/06/12 10:19:26;;;;;;;5.80;4.20;;;25.90;45.10;;;;;;5075174;28;20843;-76
2023/06/12 10:21:56;;;;;;;8.30;4.67;;;25.80;46.10;;;;;;5075029;28;20528;-76
2023/06/12 10:24:23;;;;;;;4.60;3.97;;;25.90;45.90;;;;;;5075014;28;20501;-76
2023/06/12 10:26:52;;;;;;;5.53;4.00;;;26.00;45.00;;;;;;5074430;28;20468;-76
2023/06/12 10:29:26;;;;;;;6.63;3.77;;;26.10;45.90;;;;;;5074847;28;20442;-76
2023/06/12 10:31:53;;;;;;;4.87;4.20;;;26.20;45.90;;;;;;5075103;28;20480;-76
2023/06/12 10:34:20;;;;;;;5.13;4.43;;;26.20;43.20;;;;;;5075052;28;20528;-76
2023/06/12 10:36:48;;;;;;;5.97;3.93;;;26.00;43.30;;;;;;5074132;28;20605;-75
2023/06/12 10:39:17;;;;;;;6.10;4.33;;;25.90;42.70;;;;;;5074275;28;20981;-76
2023/06/12 10:42:00;;;;;;;4.37;3.70;;;25.90;42.20;;;;;;5074678;28;20496;-75
2023/06/12 10:44:41;;;;;;;5.07;3.60;;;25.90;43.50;;;;;;5071227;28;20474;-74
2023/06/12 10:47:27;;;;;;;5.83;3.93;;;25.90;43.50;;;;;;5059090;28;20444;-76
2023/06/12 10:50:01;;;;;;;7.00;4.37;;;25.90;42.50;;;;;;5073309;28;20814;-77
2023/06/12 10:52:33;;;;;;;7.47;4.87;;;25.80;41.90;;;;;;5073564;28;20568;-77
2023/06/12 10:55:23;;;;;;;4.20;3.80;;;25.90;43.10;;;;;;5069005;28;20474;-77
2023/06/12 10:57:57;;;;;;;6.17;4.33;;;25.90;43.60;;;;;;5067258;28;20542;-77
2023/06/12 11:00:32;;;;;;;7.03;4.37;;;26.00;42.90;;;;;;5072718;28;20871;-76
2023/06/12 11:03:07;;;;;;;5.27;4.67;;;26.00;42.70;;;;;;5073984;28;20866;-76
2023/06/12 11:05:35;;;;;;;6.93;3.80;;;26.00;43.00;;;;;;5073111;28;20438;-76
2023/06/12 11:08:03;;;;;;;6.13;4.07;;;26.00;42.90;;;;;;5074062;28;20474;-77
2023/06/12 11:10:33;;;;;;;5.90;4.20;;;25.90;43.50;;;;;;5073176;28;20477;-77
2023/06/12 11:13:01;;;;;;;6.80;4.30;;;25.90;43.80;;;;;;5073720;28;20483;-74
2023/06/12 11:15:29;;;;;;;8.67;4.33;;;25.90;42.10;;;;;;5072080;28;20524;-74
2023/06/12 11:18:03;;;;;;;5.80;4.47;;;25.80;41.60;;;;;;5073213;28;20950;-74
2023/06/12 11:20:33;;;;;;;6.00;4.97;;;25.80;41.80;;;;;;5073903;28;20453;-74
2023/06/12 11:23:01;;;;;;;4.90;4.27;;;25.80;43.10;;;;;;5074592;28;20445;-75
2023/06/12 11:25:31;;;;;;;6.17;4.10;;;25.80;44.00;;;;;;5075051;28;20439;-75
2023/06/12 11:28:00;;;;;;;5.33;4.10;;;25.90;42.70;;;;;;5075074;28;20542;-76
2023/06/12 11:30:31;;;;;;;4.23;3.50;;;26.00;42.80;;;;;;5074935;28;20447;-76
2023/06/12 11:32:58;;;;;;;5.20;4.03;;;26.10;43.40;;;;;;5074435;28;20511;-75
2023/06/12 11:35:29;;;;;;;6.03;3.43;;;26.20;44.00;;;;;;5074036;28;20767;-76
2023/06/12 11:37:58;;;;;;;5.40;3.80;;;26.40;44.00;;;;;;5073988;28;20525;-76
2023/06/12 11:40:28;;;;;;;12.70;3.80;;;26.50;42.50;;;;;;5073572;28;20475;-76
2023/06/12 11:42:55;;;;;;;6.87;4.43;;;26.60;41.80;;;;;;5073443;28;20432;-75
2023/06/12 11:45:24;;;;;;;6.30;3.77;;;26.60;39.70;;;;;;5073800;28;20434;-76
2023/06/12 11:47:52;;;;;;;4.90;3.53;;;26.60;39.50;;;;;;5073871;28;20518;-76
2023/06/12 11:50:20;;;;;;;4.47;3.50;;;26.60;39.80;;;;;;5073096;28;20483;-76
2023/06/12 11:52:50;;;;;;;4.40;3.60;;;26.70;40.40;;;;;;5073825;28;20892;-76
2023/06/12 11:55:17;;;;;;;4.93;3.90;;;26.80;39.40;;;;;;5073491;28;20502;-75
2023/06/12 11:57:47;;;;;;;5.97;3.70;;;26.80;39.30;;;;;;5073442;28;20869;-75
2023/06/12 12:00:18;;;;;;;4.77;3.80;;;26.90;39.30;;;;;;5071445;28;20790;-76
2023/06/12 12:02:53;;;;;;;6.50;3.60;;;26.90;39.30;;;;;;5072756;28;20490;-76
2023/06/12 12:05:22;;;;;;;7.03;3.87;;;27.00;38.80;;;;;;5073488;28;20443;-76
2023/06/12 12:07:52;;;;;;;5.17;4.20;;;27.10;39.30;;;;;;5073298;28;20442;-76
2023/06/12 12:10:20;;;;;;;7.90;3.70;;;27.30;39.60;;;;;;5073322;28;20823;-76
2023/06/12 12:12:51;;;;;;;4.90;4.20;;;27.30;37.60;;;;;;5073155;28;20915;-76
2023/06/12 12:15:20;;;;;;;6.80;4.97;;;27.20;38.50;;;;;;5073649;28;20996;-76
2023/06/12 12:17:48;;;;;;;10.30;3.90;;;27.10;38.90;;;;;;5073226;28;20443;-77
2023/06/12 12:20:18;;;;;;;4.90;3.57;;;27.20;37.80;;;;;;5073136;28;20469;-76
2023/06/12 12:22:48;;;;;;;5.37;4.20;;;27.20;37.20;;;;;;5073175;28;20528;-77
2023/06/12 12:25:17;;;;;;;8.67;4.17;;;27.20;37.80;;;;;;5073614;28;20869;-76
2023/06/12 12:27:45;;;;;;;3.87;2.80;;;27.20;37.50;;;;;;5072849;28;20485;-76
2023/06/12 12:30:15;;;;;;;5.03;3.47;;;27.20;38.70;;;;;;5073132;28;20920;-76
2023/06/12 12:32:45;;;;;;;3.97;3.20;;;27.20;35.90;;;;;;5072993;28;20586;-75
2023/06/12 12:35:13;;;;;;;4.70;4.10;;;27.10;36.40;;;;;;5073143;28;20536;-75
2023/06/12 12:37:41;;;;;;;5.70;4.10;;;27.10;38.40;;;;;;5073199;28;20495;-76
2023/06/12 12:40:10;;;;;;;7.30;3.83;;;27.10;38.30;;;;;;5073015;28;20940;-76
2023/06/12 12:42:38;;;;;;;9.47;3.47;;;27.10;36.40;;;;;;5073175;28;20449;-76
2023/06/12 12:45:07;;;;;;;5.30;4.23;;;27.10;36.90;;;;;;5073089;28;20544;-76
2023/06/12 12:47:35;;;;;;;5.23;4.00;;;27.00;35.80;;;;;;5073036;28;20482;-75
2023/06/12 12:50:03;;;;;;;5.40;3.90;;;27.00;36.50;;;;;;5072825;28;20439;-76
2023/06/12 12:52:30;;;;;;;4.87;3.53;;;27.00;36.40;;;;;;5073033;28;20817;-76
2023/06/12 12:54:59;;;;;;;7.70;4.10;;;27.00;36.10;;;;;;5073105;28;20463;-76
2023/06/12 12:57:31;;;;;;;6.53;3.87;;;27.00;36.50;;;;;;5073223;28;20534;-76
2023/06/12 12:59:59;;;;;;;5.43;3.70;;;27.10;37.40;;;;;;5074464;28;20489;-75
2023/06/12 13:02:31;;;;;;;9.17;3.87;;;27.10;37.10;;;;;;5076543;28;20448;-76
2023/06/12 13:04:58;;;;;;;7.93;3.30;;;27.20;35.80;;;;;;5077312;28;20454;-75
2023/06/12 13:07:27;;;;;;;5.00;4.37;;;27.20;36.30;;;;;;5076195;28;20480;-77
2023/06/12 13:09:54;;;;;;;4.80;3.50;;;27.20;36.40;;;;;;5076257;28;20940;-76
2023/06/12 13:12:23;;;;;;;7.47;4.70;;;27.10;35.30;;;;;;5076120;28;21030;-77
2023/06/12 13:14:54;;;;;;;5.60;4.40;;;27.00;35.60;;;;;;5076316;28;20479;-76
2023/06/12 13:17:21;;;;;;;4.83;3.50;;;26.90;36.10;;;;;;5076604;28;20482;-76
2023/06/12 13:19:53;;;;;;;5.87;4.03;;;26.90;37.60;;;;;;5076572;28;20439;-76
2023/06/12 13:22:20;;;;;;;6.17;4.10;;;26.90;37.80;;;;;;5076135;28;20457;-76
2023/06/12 13:24:47;;;;;;;4.10;3.47;;;26.90;36.60;;;;;;5076603;28;20489;-75
2023/06/12 13:27:14;;;;;;;6.20;3.70;;;26.80;36.20;;;;;;5075830;28;20474;-75
2023/06/12 13:29:42;;;;;;;5.07;3.50;;;26.80;36.30;;;;;;5075717;28;20475;-76
2023/06/12 13:32:09;;;;;;;5.57;3.90;;;26.90;36.30;;;;;;5075717;28;20473;-75
2023/06/12 13:34:41;;;;;;;5.70;3.70;;;26.80;36.50;;;;;;5075463;28;20475;-75
2023/06/12 13:37:08;;;;;;;4.70;3.60;;;26.80;35.70;;;;;;5075771;28;20475;-76
2023/06/12 13:39:34;;;;;;;6.33;3.83;;;26.70;37.00;;;;;;5075584;28;20557;-75
2023/06/12 13:42:01;;;;;;;5.77;3.27;;;26.70;35.70;;;;;;5075166;28;20465;-76
2023/06/12 13:44:33;;;;;;;5.97;4.10;;;26.70;35.50;;;;;;5075683;28;20441;-76
2023/06/12 13:47:02;;;;;;;7.27;3.60;;;26.70;35.30;;;;;;5075696;28;20462;-76
2023/06/12 13:49:29;;;;;;;4.50;3.00;;;26.60;34.30;;;;;;5075728;28;20788;-75
2023/06/12 13:51:56;;;;;;;4.63;3.47;;;26.60;35.10;;;;;;5075545;28;20482;-76
2023/06/12 13:54:23;;;;;;;6.07;3.43;;;26.60;36.20;;;;;;5075288;28;20453;-76
2023/06/12 13:56:50;;;;;;;4.33;3.20;;;26.60;36.30;;;;;;5075435;28;20433;-75
2023/06/12 13:59:21;;;;;;;4.17;3.77;;;26.60;36.50;;;;;;5075556;28;20435;-76
2023/06/12 14:01:48;;;;;;;5.20;3.70;;;26.70;36.10;;;;;;5075478;28;20443;-76
2023/06/12 14:04:17;;;;;;;5.33;3.73;;;26.70;34.50;;;;;;5074559;28;20499;-76
2023/06/12 14:06:44;;;;;;;8.63;3.03;;;26.60;34.80;;;;;;5075212;28;20441;-76
2023/06/12 14:09:11;;;;;;;3.87;2.67;;;26.60;33.60;;;;;;5075223;28;20443;-77
2023/06/12 14:11:38;;;;;;;5.57;3.63;;;26.50;33.90;;;;;;5074518;28;20944;-77
2023/06/12 14:14:05;;;;;;;5.23;3.63;;;26.50;32.60;;;;;;5075146;28;20899;-76
2023/06/12 14:16:32;;;;;;;4.97;3.40;;;26.40;33.20;;;;;;5072067;28;20488;-77